createdAt,value
2018-02-24T00:00:40.823Z,99.99
2018-02-24T00:01:49.660Z,99.99
2018-02-24T00:02:58.495Z,99.65
2018-02-24T00:04:07.332Z,99.51
2018-02-24T00:05:16.217Z,99.56
2018-02-24T00:06:24.999Z,99.56
2018-02-24T00:07:33.838Z,99.56
2018-02-24T00:08:42.951Z,99.51
2018-02-24T00:09:51.903Z,99.99
2018-02-24T00:11:00.744Z,99.99
2018-02-24T00:12:09.580Z,99.99
2018-02-24T00:13:18.422Z,99.65
2018-02-24T00:14:27.259Z,99.99
2018-02-24T00:15:36.083Z,99.65
2018-02-24T00:16:44.909Z,99.99
2018-02-24T00:17:53.732Z,99.98
2018-02-24T00:19:02.555Z,99.99
2018-02-24T00:20:11.379Z,99.99
2018-02-24T00:21:20.302Z,99.99
2018-02-24T00:22:29.128Z,99.98
2018-02-24T00:23:37.951Z,99.84
2018-02-24T00:24:46.778Z,99.84
2018-02-24T00:25:55.873Z,99.99
2018-02-24T00:27:05.071Z,99.99
2018-02-24T00:28:13.894Z,99.99
2018-02-24T00:29:22.715Z,99.99
2018-02-24T00:30:31.537Z,99.99
2018-02-24T00:31:40.361Z,99.99
2018-02-24T00:32:49.182Z,99.99
2018-02-24T00:33:58.004Z,99.99
2018-02-24T00:35:06.827Z,99.99
2018-02-24T00:36:15.650Z,99.99
2018-02-24T00:37:24.474Z,99.99
2018-02-24T00:38:33.395Z,99.99
2018-02-24T00:39:42.216Z,99.99
2018-02-24T00:40:51.040Z,99.99
2018-02-24T00:41:59.864Z,99.99
2018-02-24T00:43:08.965Z,99.99
2018-02-24T00:44:17.785Z,99.99
2018-02-24T00:45:26.886Z,99.99
2018-02-24T00:46:35.708Z,99.99
2018-02-24T00:47:44.533Z,99.99
2018-02-24T00:48:53.628Z,99.99
2018-02-24T00:50:02.505Z,99.99
2018-02-24T00:51:11.602Z,99.99
2018-02-24T00:52:20.424Z,99.99
2018-02-24T00:53:29.247Z,99.99
2018-02-24T00:54:38.072Z,99.99
2018-02-24T00:55:46.896Z,99.99
2018-02-24T00:56:55.717Z,99.99
2018-02-24T00:58:04.815Z,99.99
2018-02-24T00:59:13.643Z,99.99
2018-02-24T01:00:22.465Z,99.99
2018-02-24T01:01:31.287Z,99.99
2018-02-24T01:02:40.113Z,99.99
2018-02-24T01:03:49.213Z,99.99
2018-02-24T01:04:58.037Z,99.99
2018-02-24T01:06:06.860Z,99.99
2018-02-24T01:07:15.784Z,99.99
2018-02-24T01:08:24.606Z,99.99
2018-02-24T01:09:33.429Z,99.99
2018-02-24T01:10:42.253Z,99.99
2018-02-24T01:11:51.073Z,99.99
2018-02-24T01:12:59.894Z,99.99
2018-02-24T01:14:08.717Z,99.99
2018-02-24T01:15:17.816Z,99.99
2018-02-24T01:16:26.639Z,99.99
2018-02-24T01:17:35.461Z,99.99
2018-02-24T01:18:44.284Z,99.99
2018-02-24T01:19:53.108Z,99.99
2018-02-24T01:21:01.931Z,99.99
2018-02-24T01:22:10.750Z,99.99
2018-02-24T01:23:19.572Z,99.99
2018-02-24T01:24:28.495Z,99.99
2018-02-24T01:25:37.320Z,99.99
2018-02-24T01:26:46.141Z,99.99
2018-02-24T01:27:55.246Z,99.99
2018-02-24T01:29:04.069Z,99.99
2018-02-24T01:30:12.889Z,99.99
2018-02-24T01:31:21.712Z,99.99
2018-02-24T01:32:30.536Z,99.99
2018-02-24T01:33:39.358Z,99.99
2018-02-24T01:34:48.181Z,99.99
2018-02-24T01:35:57.653Z,99.99
2018-02-24T01:37:06.475Z,99.99
2018-02-24T01:38:15.298Z,99.99
2018-02-24T01:39:24.397Z,99.99
2018-02-24T01:40:33.218Z,99.99
2018-02-24T01:41:42.322Z,99.99
2018-02-24T01:42:51.418Z,99.99
2018-02-24T01:44:00.241Z,99.99
2018-02-24T01:45:09.064Z,99.79
2018-02-24T01:46:17.887Z,99.51
2018-02-24T01:47:26.712Z,99.99
2018-02-24T01:48:35.533Z,99.99
2018-02-24T01:49:44.357Z,99.99
2018-02-24T01:50:53.181Z,99.99
2018-02-24T01:52:02.000Z,99.6
2018-02-24T01:53:10.974Z,99.51
2018-02-24T01:54:19.799Z,99.99
2018-02-24T01:55:28.618Z,99.99
2018-02-24T01:56:37.438Z,99.98
2018-02-24T01:57:46.262Z,99.99
2018-02-24T01:58:55.467Z,99.98
2018-02-24T02:00:04.291Z,99.7
2018-02-24T02:01:13.111Z,99.79
2018-02-24T02:02:21.932Z,99.98
2018-02-24T02:03:31.033Z,99.99
2018-02-24T02:04:40.433Z,99.79
2018-02-24T02:05:49.529Z,99.51
2018-02-24T02:06:58.355Z,99.99
2018-02-24T02:08:07.454Z,99.99
2018-02-24T02:09:16.274Z,99.79
2018-02-24T02:10:25.097Z,99.98
2018-02-24T02:11:33.921Z,99.88
2018-02-24T02:12:42.741Z,99.99
2018-02-24T02:13:51.561Z,99.99
2018-02-24T02:15:00.381Z,99.7
2018-02-24T02:16:09.205Z,99.41
2018-02-24T02:17:18.028Z,99.6
2018-02-24T02:18:26.853Z,99.7
2018-02-24T02:19:35.950Z,99.51
2018-02-24T02:20:44.771Z,99.41
2018-02-24T02:21:53.593Z,99.7
2018-02-24T02:23:02.417Z,99.6
2018-02-24T02:24:11.239Z,99.6
2018-02-24T02:25:20.061Z,99.32
2018-02-24T02:26:28.883Z,99.6
2018-02-24T02:27:38.082Z,99.51
2018-02-24T02:28:47.183Z,99.41
2018-02-24T02:29:56.005Z,99.6
2018-02-24T02:31:04.830Z,99.41
2018-02-24T02:32:13.653Z,99.6
2018-02-24T02:33:22.586Z,99.41
2018-02-24T02:34:31.681Z,99.13
2018-02-24T02:35:40.503Z,99.04
2018-02-24T02:36:49.324Z,99.22
2018-02-24T02:37:58.421Z,99.41
2018-02-24T02:39:07.346Z,99.51
2018-02-24T02:40:16.168Z,99.32
2018-02-24T02:41:24.996Z,99.41
2018-02-24T02:42:33.815Z,99.41
2018-02-24T02:43:42.637Z,99.79
2018-02-24T02:44:51.515Z,99.22
2018-02-24T02:46:00.344Z,99.32
2018-02-24T02:47:09.735Z,99.51
2018-02-24T02:48:18.841Z,99.41
2018-02-24T02:49:27.666Z,98.75
2018-02-24T02:50:36.487Z,98.66
2018-02-24T02:51:45.309Z,98.47
2018-02-24T02:52:54.130Z,98.75
2018-02-24T02:54:02.951Z,98.57
2018-02-24T02:55:11.789Z,98.19
2018-02-24T02:56:21.140Z,98.1
2018-02-24T02:57:29.958Z,98.57
2018-02-24T02:58:38.791Z,98.75
2018-02-24T02:59:47.605Z,98.57
2018-02-24T03:00:56.427Z,99.04
2018-02-24T03:02:05.251Z,99.04
2018-02-24T03:03:14.353Z,98.85
2018-02-24T03:04:23.178Z,98.57
2018-02-24T03:05:32.001Z,98.47
2018-02-24T03:06:40.823Z,97.91
2018-02-24T03:07:49.852Z,98.28
2018-02-24T03:08:58.671Z,98.28
2018-02-24T03:10:07.775Z,97.72
2018-02-24T03:11:16.598Z,98.19
2018-02-24T03:12:25.420Z,97.72
2018-02-24T03:13:34.298Z,97.81
2018-02-24T03:14:43.118Z,97.72
2018-02-24T03:15:51.939Z,98.1
2018-02-24T03:17:00.763Z,97.62
2018-02-24T03:18:09.584Z,97.53
2018-02-24T03:19:18.506Z,97.43
2018-02-24T03:20:27.330Z,97.43
2018-02-24T03:21:36.443Z,97.43
2018-02-24T03:22:45.266Z,97.91
2018-02-24T03:23:54.088Z,97.24
2018-02-24T03:25:03.062Z,97.72
2018-02-24T03:26:12.185Z,97.34
2018-02-24T03:27:21.290Z,97.34
2018-02-24T03:28:30.109Z,97.43
2018-02-24T03:29:38.931Z,96.68
2018-02-24T03:30:48.363Z,96.77
2018-02-24T03:31:57.179Z,96.39
2018-02-24T03:33:06.002Z,96.3
2018-02-24T03:34:14.825Z,96.58
2018-02-24T03:35:23.647Z,96.58
2018-02-24T03:36:32.571Z,97.43
2018-02-24T03:37:41.667Z,96.68
2018-02-24T03:38:50.774Z,96.96
2018-02-24T03:39:59.595Z,96.68
2018-02-24T03:41:08.421Z,96.77
2018-02-24T03:42:17.240Z,96.86
2018-02-24T03:43:26.062Z,96.77
2018-02-24T03:44:34.886Z,96.58
2018-02-24T03:45:43.710Z,96.58
2018-02-24T03:46:52.534Z,96.3
2018-02-24T03:48:01.405Z,95.45
2018-02-24T03:49:10.227Z,95.83
2018-02-24T03:50:19.047Z,95.07
2018-02-24T03:51:27.871Z,95.26
2018-02-24T03:52:36.694Z,94.79
2018-02-24T03:53:45.519Z,94.6
2018-02-24T03:54:54.378Z,94.89
2018-02-24T03:56:03.162Z,94.89
2018-02-24T03:57:11.985Z,94.51
2018-02-24T03:58:20.806Z,94.51
2018-02-24T03:59:29.879Z,94.22
2018-02-24T04:00:38.701Z,94.03
2018-02-24T04:01:47.522Z,93.94
2018-02-24T04:02:56.347Z,94.03
2018-02-24T04:04:05.167Z,93.84
2018-02-24T04:05:14.291Z,94.41
2018-02-24T04:06:23.111Z,93.75
2018-02-24T04:07:31.932Z,93.56
2018-02-24T04:08:40.758Z,93.84
2018-02-24T04:09:49.850Z,93.28
2018-02-24T04:10:58.971Z,93.56
2018-02-24T04:12:07.795Z,93.84
2018-02-24T04:13:16.615Z,93.66
2018-02-24T04:14:25.437Z,93.47
2018-02-24T04:15:34.267Z,93.37
2018-02-24T04:16:43.420Z,93.47
2018-02-24T04:17:52.240Z,93.47
2018-02-24T04:19:01.061Z,93.47
2018-02-24T04:20:09.887Z,93.75
2018-02-24T04:21:18.984Z,93.56
2018-02-24T04:22:27.957Z,93.18
2018-02-24T04:23:36.780Z,93.18
2018-02-24T04:24:45.613Z,93.18
2018-02-24T04:25:54.429Z,92.61
2018-02-24T04:27:03.253Z,92.71
2018-02-24T04:28:12.453Z,92.8
2018-02-24T04:29:21.277Z,92.33
2018-02-24T04:30:30.099Z,92.43
2018-02-24T04:31:38.920Z,91.96
2018-02-24T04:32:47.744Z,92.71
2018-02-24T04:33:56.566Z,92.52
2018-02-24T04:35:05.389Z,92.24
2018-02-24T04:36:14.208Z,92.61
2018-02-24T04:37:23.032Z,91.58
2018-02-24T04:38:31.852Z,91.58
2018-02-24T04:39:40.724Z,91.67
2018-02-24T04:40:49.547Z,91.67
2018-02-24T04:41:58.370Z,91.77
2018-02-24T04:43:07.474Z,91.67
2018-02-24T04:44:16.294Z,91.49
2018-02-24T04:45:25.367Z,91.49
2018-02-24T04:46:34.186Z,91.39
2018-02-24T04:47:43.007Z,91.2
2018-02-24T04:48:51.828Z,91.3
2018-02-24T04:50:00.651Z,91.58
2018-02-24T04:51:09.523Z,91.49
2018-02-24T04:52:18.344Z,91.58
2018-02-24T04:53:27.173Z,91.58
2018-02-24T04:54:35.992Z,90.73
2018-02-24T04:55:45.087Z,90.92
2018-02-24T04:56:54.059Z,90.92
2018-02-24T04:58:02.882Z,90.92
2018-02-24T04:59:11.704Z,90.73
2018-02-24T05:00:20.527Z,91.01
2018-02-24T05:01:29.351Z,91.2
2018-02-24T05:02:38.221Z,90.82
2018-02-24T05:03:47.046Z,90.54
2018-02-24T05:04:55.867Z,91.2
2018-02-24T05:06:04.964Z,90.54
2018-02-24T05:07:13.787Z,90.64
2018-02-24T05:08:22.759Z,90.73
2018-02-24T05:09:31.581Z,90.64
2018-02-24T05:10:40.679Z,90.73
2018-02-24T05:11:49.500Z,90.64
2018-02-24T05:12:58.321Z,90.35
2018-02-24T05:14:07.144Z,91.01
2018-02-24T05:15:15.966Z,90.45
2018-02-24T05:16:24.790Z,90.26
2018-02-24T05:17:33.609Z,90.45
2018-02-24T05:18:42.516Z,90.35
2018-02-24T05:19:51.304Z,90.26
2018-02-24T05:21:00.125Z,90.21
2018-02-24T05:22:09.228Z,90.45
2018-02-24T05:23:18.327Z,90.07
2018-02-24T05:24:27.151Z,90.5
2018-02-24T05:25:36.346Z,90.26
2018-02-24T05:26:45.166Z,90.45
2018-02-24T05:27:54.267Z,90.26
2018-02-24T05:29:03.366Z,90.26
2018-02-24T05:30:12.187Z,90.26
2018-02-24T05:31:21.440Z,89.78
2018-02-24T05:32:30.257Z,90.07
2018-02-24T05:33:39.099Z,89.88
2018-02-24T05:34:47.902Z,89.78
2018-02-24T05:35:56.723Z,89.4
2018-02-24T05:37:05.546Z,89.59
2018-02-24T05:38:14.367Z,90.16
2018-02-24T05:39:23.190Z,89.4
2018-02-24T05:40:32.013Z,89.59
2018-02-24T05:41:40.839Z,89.78
2018-02-24T05:42:50.037Z,89.5
2018-02-24T05:43:58.860Z,89.78
2018-02-24T05:45:07.687Z,89.88
2018-02-24T05:46:16.508Z,89.59
2018-02-24T05:47:25.326Z,89.59
2018-02-24T05:48:34.247Z,89.59
2018-02-24T05:49:43.068Z,89.88
2018-02-24T05:50:52.163Z,89.5
2018-02-24T05:52:00.984Z,89.88
2018-02-24T05:53:09.808Z,88.93
2018-02-24T05:54:18.783Z,89.31
2018-02-24T05:55:27.602Z,89.4
2018-02-24T05:56:36.425Z,89.31
2018-02-24T05:57:45.248Z,89.12
2018-02-24T05:58:54.070Z,88.84
2018-02-24T06:00:03.041Z,89.22
2018-02-24T06:01:11.863Z,89.03
2018-02-24T06:02:20.685Z,89.22
2018-02-24T06:03:29.508Z,89.22
2018-02-24T06:04:38.332Z,89.03
2018-02-24T06:05:47.303Z,88.93
2018-02-24T06:06:56.410Z,88.84
2018-02-24T06:08:05.234Z,89.12
2018-02-24T06:09:14.056Z,89.03
2018-02-24T06:10:22.877Z,89.22
2018-02-24T06:11:31.703Z,88.84
2018-02-24T06:12:40.526Z,88.65
2018-02-24T06:13:49.350Z,89.31
2018-02-24T06:14:58.175Z,89.07
2018-02-24T06:16:06.996Z,89.36
2018-02-24T06:17:15.920Z,89.07
2018-02-24T06:18:24.748Z,89.07
2018-02-24T06:19:33.567Z,88.79
2018-02-24T06:20:42.390Z,88.98
2018-02-24T06:21:51.214Z,88.98
2018-02-24T06:23:00.238Z,89.07
2018-02-24T06:24:09.069Z,89.07
2018-02-24T06:25:18.162Z,88.98
2018-02-24T06:26:26.988Z,89.07
2018-02-24T06:27:36.084Z,89.26
2018-02-24T06:28:44.906Z,89.07
2018-02-24T06:29:54.005Z,89.17
2018-02-24T06:31:02.828Z,88.6
2018-02-24T06:32:11.653Z,89.07
2018-02-24T06:33:20.478Z,89.17
2018-02-24T06:34:29.601Z,88.32
2018-02-24T06:35:38.425Z,88.7
2018-02-24T06:36:47.246Z,88.7
2018-02-24T06:37:56.068Z,88.32
2018-02-24T06:39:04.893Z,88.13
2018-02-24T06:40:13.719Z,88.7
2018-02-24T06:41:22.543Z,88.79
2018-02-24T06:42:31.368Z,88.6
2018-02-24T06:43:40.193Z,88.32
2018-02-24T06:44:49.304Z,88.32
2018-02-24T06:45:58.429Z,88.51
2018-02-24T06:47:07.254Z,88.7
2018-02-24T06:48:16.079Z,88.32
2018-02-24T06:49:24.902Z,88.42
2018-02-24T06:50:33.729Z,88.7
2018-02-24T06:51:42.986Z,88.79
2018-02-24T06:52:51.810Z,88.6
2018-02-24T06:54:00.643Z,88.7
2018-02-24T06:55:09.459Z,88.6
2018-02-24T06:56:18.284Z,88.32
2018-02-24T06:57:27.257Z,88.13
2018-02-24T06:58:36.081Z,88.13
2018-02-24T06:59:44.908Z,88.79
2018-02-24T07:00:53.732Z,88.51
2018-02-24T07:02:02.553Z,88.32
2018-02-24T07:03:11.752Z,88.32
2018-02-24T07:04:20.576Z,88.13
2018-02-24T07:05:29.401Z,88.13
2018-02-24T07:06:38.224Z,88.17
2018-02-24T07:07:47.047Z,88.46
2018-02-24T07:08:55.871Z,88.27
2018-02-24T07:10:04.695Z,88.42
2018-02-24T07:11:13.519Z,88.17
2018-02-24T07:12:22.344Z,88.17
2018-02-24T07:13:31.170Z,88.74
2018-02-24T07:14:40.144Z,88.46
2018-02-24T07:15:48.972Z,88.46
2018-02-24T07:16:57.794Z,88.17
2018-02-24T07:18:06.627Z,88.46
2018-02-24T07:19:15.444Z,88.17
2018-02-24T07:20:24.418Z,88.65
2018-02-24T07:21:33.240Z,88.36
2018-02-24T07:22:42.068Z,88.55
2018-02-24T07:23:50.892Z,88.36
2018-02-24T07:24:59.715Z,87.89
2018-02-24T07:26:08.693Z,87.89
2018-02-24T07:27:17.799Z,88.27
2018-02-24T07:28:26.623Z,87.98
2018-02-24T07:29:35.450Z,87.89
2018-02-24T07:30:44.274Z,87.79
2018-02-24T07:31:53.248Z,87.89
2018-02-24T07:33:02.072Z,88.17
2018-02-24T07:34:10.906Z,87.79
2018-02-24T07:35:19.722Z,88.17
2018-02-24T07:36:28.546Z,88.17
2018-02-24T07:37:37.520Z,87.7
2018-02-24T07:38:46.344Z,87.42
2018-02-24T07:39:55.168Z,87.51
2018-02-24T07:41:03.990Z,87.79
2018-02-24T07:42:12.817Z,87.42
2018-02-24T07:43:21.791Z,87.23
2018-02-24T07:44:30.889Z,86.94
2018-02-24T07:45:39.714Z,87.61
2018-02-24T07:46:48.557Z,87.23
2018-02-24T07:47:57.365Z,87.13
2018-02-24T07:49:06.345Z,87.32
2018-02-24T07:50:15.166Z,87.32
2018-02-24T07:51:23.989Z,87.23
2018-02-24T07:52:32.817Z,87.42
2018-02-24T07:53:41.644Z,87.04
2018-02-24T07:54:50.469Z,86.94
2018-02-24T07:55:59.299Z,86.47
2018-02-24T07:57:08.126Z,87.32
2018-02-24T07:58:16.954Z,87.32
2018-02-24T07:59:25.832Z,87.32
2018-02-24T08:00:34.718Z,86.94
2018-02-24T08:01:43.811Z,86.9
2018-02-24T08:02:52.644Z,86.52
2018-02-24T08:04:01.478Z,86.8
2018-02-24T08:05:10.582Z,86.9
2018-02-24T08:06:19.556Z,86.61
2018-02-24T08:07:28.388Z,86.71
2018-02-24T08:08:37.493Z,86.9
2018-02-24T08:09:46.322Z,86.52
2018-02-24T08:10:55.148Z,86.52
2018-02-24T08:12:04.024Z,86.71
2018-02-24T08:13:12.851Z,86.99
2018-02-24T08:14:21.675Z,86.9
2018-02-24T08:15:30.505Z,86.33
2018-02-24T08:16:39.328Z,86.99
2018-02-24T08:17:48.305Z,86.9
2018-02-24T08:18:57.131Z,86.71
2018-02-24T08:20:05.954Z,86.71
2018-02-24T08:21:14.781Z,86.52
2018-02-24T08:22:23.607Z,86.52
2018-02-24T08:23:32.489Z,86.61
2018-02-24T08:24:41.310Z,86.52
2018-02-24T08:25:50.139Z,86.71
2018-02-24T08:26:59.242Z,86.71
2018-02-24T08:28:08.344Z,86.61
2018-02-24T08:29:17.169Z,86.9
2018-02-24T08:30:25.997Z,86.8
2018-02-24T08:31:35.105Z,86.52
2018-02-24T08:32:44.212Z,86.52
2018-02-24T08:33:53.037Z,87.08
2018-02-24T08:35:01.916Z,86.71
2018-02-24T08:36:10.742Z,86.42
2018-02-24T08:37:19.569Z,86.99
2018-02-24T08:38:28.395Z,86.8
2018-02-24T08:39:37.221Z,86.61
2018-02-24T08:40:46.147Z,86.9
2018-02-24T08:41:54.976Z,86.52
2018-02-24T08:43:03.803Z,86.99
2018-02-24T08:44:12.630Z,86.61
2018-02-24T08:45:21.455Z,86.9
2018-02-24T08:46:30.386Z,86.52
2018-02-24T08:47:39.215Z,86.71
2018-02-24T08:48:48.041Z,87.32
2018-02-24T08:49:56.865Z,86.42
2018-02-24T08:51:05.691Z,87.27
2018-02-24T08:52:14.617Z,86.85
2018-02-24T08:53:23.445Z,86.9
2018-02-24T08:54:32.270Z,87.04
2018-02-24T08:55:41.096Z,86.66
2018-02-24T08:56:49.921Z,86.56
2018-02-24T08:57:59.198Z,86.75
2018-02-24T08:59:08.027Z,86.75
2018-02-24T09:00:16.853Z,86.94
2018-02-24T09:01:25.679Z,87.32
2018-02-24T09:02:34.609Z,86.94
2018-02-24T09:03:43.434Z,86.56
2018-02-24T09:04:52.262Z,86.75
2018-02-24T09:06:01.088Z,86.94
2018-02-24T09:07:09.915Z,86.85
2018-02-24T09:08:18.741Z,87.32
2018-02-24T09:09:27.569Z,86.94
2018-02-24T09:10:36.396Z,87.23
2018-02-24T09:11:45.224Z,87.04
2018-02-24T09:12:54.051Z,87.6
2018-02-24T09:14:02.881Z,86.94
2018-02-24T09:15:11.956Z,87.41
2018-02-24T09:16:20.785Z,87.23
2018-02-24T09:17:29.611Z,87.32
2018-02-24T09:18:38.437Z,87.23
2018-02-24T09:19:47.266Z,87.32
2018-02-24T09:20:56.243Z,87.23
2018-02-24T09:22:05.073Z,87.23
2018-02-24T09:23:13.902Z,87.51
2018-02-24T09:24:22.730Z,87.23
2018-02-24T09:25:31.557Z,87.51
2018-02-24T09:26:40.536Z,87.6
2018-02-24T09:27:49.364Z,87.51
2018-02-24T09:28:58.192Z,87.41
2018-02-24T09:30:07.024Z,87.7
2018-02-24T09:31:15.849Z,87.7
2018-02-24T09:32:24.677Z,88.12
2018-02-24T09:33:33.783Z,87.93
2018-02-24T09:34:42.612Z,87.27
2018-02-24T09:35:51.719Z,88.31
2018-02-24T09:37:00.823Z,87.93
2018-02-24T09:38:09.652Z,88.02
2018-02-24T09:39:18.480Z,88.12
2018-02-24T09:40:27.318Z,88.31
2018-02-24T09:41:36.146Z,88.49
2018-02-24T09:42:44.973Z,88.31
2018-02-24T09:43:53.801Z,88.87
2018-02-24T09:45:02.631Z,88.68
2018-02-24T09:46:11.455Z,88.78
2018-02-24T09:47:20.284Z,88.31
2018-02-24T09:48:29.397Z,88.59
2018-02-24T09:49:38.376Z,89.16
2018-02-24T09:50:47.200Z,89.16
2018-02-24T09:51:56.028Z,89.06
2018-02-24T09:53:04.858Z,88.49
2018-02-24T09:54:13.685Z,89.16
2018-02-24T09:55:22.765Z,89.06
2018-02-24T09:56:31.592Z,89.06
2018-02-24T09:57:40.419Z,89.25
2018-02-24T09:58:49.249Z,88.87
2018-02-24T09:59:58.079Z,88.87
2018-02-24T10:01:07.059Z,89.35
2018-02-24T10:02:15.889Z,89.35
2018-02-24T10:03:24.719Z,89.35
2018-02-24T10:04:33.545Z,89.63
2018-02-24T10:05:42.655Z,89.63
2018-02-24T10:06:51.919Z,89.35
2018-02-24T10:08:01.021Z,89.54
2018-02-24T10:09:09.850Z,90.01
2018-02-24T10:10:18.678Z,90.01
2018-02-24T10:11:27.508Z,89.54
2018-02-24T10:12:36.488Z,89.63
2018-02-24T10:13:45.315Z,90.11
2018-02-24T10:14:54.422Z,89.82
2018-02-24T10:16:03.255Z,89.54
2018-02-24T10:17:12.084Z,90.06
2018-02-24T10:18:20.916Z,89.49
2018-02-24T10:19:29.744Z,89.68
2018-02-24T10:20:38.571Z,89.87
2018-02-24T10:21:47.404Z,89.87
2018-02-24T10:22:56.230Z,89.87
2018-02-24T10:24:05.111Z,89.68
2018-02-24T10:25:13.937Z,90.34
2018-02-24T10:26:22.768Z,90.77
2018-02-24T10:27:31.599Z,90.39
2018-02-24T10:28:40.427Z,90.77
2018-02-24T10:29:49.407Z,90.48
2018-02-24T10:30:58.247Z,90.39
2018-02-24T10:32:07.352Z,90.77
2018-02-24T10:33:16.184Z,90.3
2018-02-24T10:34:25.015Z,90.67
2018-02-24T10:35:33.992Z,90.67
2018-02-24T10:36:42.819Z,90.48
2018-02-24T10:37:51.647Z,90.77
2018-02-24T10:39:00.477Z,90.67
2018-02-24T10:40:09.307Z,90.58
2018-02-24T10:41:18.133Z,90.48
2018-02-24T10:42:26.963Z,90.96
2018-02-24T10:43:35.795Z,90.58
2018-02-24T10:44:44.621Z,90.48
2018-02-24T10:45:53.448Z,90.86
2018-02-24T10:47:02.325Z,90.86
2018-02-24T10:48:11.433Z,90.67
2018-02-24T10:49:20.259Z,90.77
2018-02-24T10:50:29.091Z,90.86
2018-02-24T10:51:37.918Z,90.58
2018-02-24T10:52:46.854Z,91.05
2018-02-24T10:53:55.683Z,90.67
2018-02-24T10:55:04.513Z,90.86
2018-02-24T10:56:13.341Z,91.24
2018-02-24T10:57:22.170Z,90.48
2018-02-24T10:58:31.201Z,90.53
2018-02-24T10:59:40.079Z,91.67
2018-02-24T11:00:49.192Z,90.67
2018-02-24T11:01:58.019Z,90.91
2018-02-24T11:03:06.876Z,91.48
2018-02-24T11:04:15.677Z,91.76
2018-02-24T11:05:24.507Z,91.38
2018-02-24T11:06:33.334Z,91.38
2018-02-24T11:07:42.171Z,92.05
2018-02-24T11:08:51.000Z,91.67
2018-02-24T11:09:59.980Z,91.67
2018-02-24T11:11:08.810Z,92.33
2018-02-24T11:12:17.639Z,92.33
2018-02-24T11:13:26.747Z,92.14
2018-02-24T11:14:35.578Z,92.52
2018-02-24T11:15:44.406Z,92.8
2018-02-24T11:16:53.239Z,92.99
2018-02-24T11:18:02.344Z,92.71
2018-02-24T11:19:11.174Z,92.61
2018-02-24T11:20:20.007Z,92.71
2018-02-24T11:21:29.222Z,92.9
2018-02-24T11:22:38.049Z,93.08
2018-02-24T11:23:46.879Z,92.9
2018-02-24T11:24:55.707Z,93.18
2018-02-24T11:26:05.099Z,93.27
2018-02-24T11:27:14.077Z,93.27
2018-02-24T11:28:22.906Z,93.08
2018-02-24T11:29:31.737Z,93.18
2018-02-24T11:30:40.567Z,92.99
2018-02-24T11:31:49.685Z,92.99
2018-02-24T11:32:58.765Z,93.27
2018-02-24T11:34:07.594Z,93.89
2018-02-24T11:35:16.468Z,93.13
2018-02-24T11:36:25.282Z,93.04
2018-02-24T11:37:34.112Z,92.47
2018-02-24T11:38:42.944Z,92.66
2018-02-24T11:39:51.774Z,92.28
2018-02-24T11:41:00.618Z,91.81
2018-02-24T11:42:09.451Z,92.33
2018-02-24T11:43:18.553Z,92.33
2018-02-24T11:44:27.384Z,93.08
2018-02-24T11:45:36.213Z,92.85
2018-02-24T11:46:45.044Z,91.95
2018-02-24T11:47:53.876Z,92.33
2018-02-24T11:49:02.985Z,92.47
2018-02-24T11:50:11.862Z,91.62
2018-02-24T11:51:20.642Z,91.05
2018-02-24T11:52:29.746Z,90.01
2018-02-24T11:53:38.576Z,89.25
2018-02-24T11:54:47.403Z,89.15
2018-02-24T11:55:56.233Z,89.34
2018-02-24T11:57:05.062Z,88.96
2018-02-24T11:58:13.945Z,87.26
2018-02-24T11:59:22.863Z,86.69
2018-02-24T12:00:31.694Z,86.98
2018-02-24T12:01:40.528Z,86.79
2018-02-24T12:02:49.358Z,87.26
2018-02-24T12:03:58.337Z,86.79
2018-02-24T12:05:07.166Z,85.93
2018-02-24T12:06:16.058Z,86.03
2018-02-24T12:07:24.888Z,85.27
2018-02-24T12:08:33.719Z,84.8
2018-02-24T12:09:42.564Z,84.51
2018-02-24T12:10:51.392Z,85.27
2018-02-24T12:12:00.501Z,85.65
2018-02-24T12:13:09.335Z,85.46
2018-02-24T12:14:18.163Z,86.03
2018-02-24T12:15:26.992Z,86.69
2018-02-24T12:16:35.820Z,85.55
2018-02-24T12:17:44.652Z,84.8
2018-02-24T12:18:53.482Z,84.42
2018-02-24T12:20:02.313Z,84.51
2018-02-24T12:21:11.143Z,84.8
2018-02-24T12:22:19.973Z,84.51
2018-02-24T12:23:28.802Z,84.61
2018-02-24T12:24:37.633Z,84.32
2018-02-24T12:25:46.735Z,84.32
2018-02-24T12:26:55.837Z,84.42
2018-02-24T12:28:04.669Z,84.42
2018-02-24T12:29:13.497Z,83.9
2018-02-24T12:30:22.327Z,83.43
2018-02-24T12:31:31.168Z,83.81
2018-02-24T12:32:39.985Z,82.76
2018-02-24T12:33:48.811Z,82.01
2018-02-24T12:34:57.919Z,82.01
2018-02-24T12:36:06.999Z,80.63
2018-02-24T12:37:15.827Z,79.21
2018-02-24T12:38:24.657Z,79.02
2018-02-24T12:39:33.487Z,78.16
2018-02-24T12:40:42.319Z,77.78
2018-02-24T12:41:51.159Z,78.07
2018-02-24T12:42:59.995Z,77.59
2018-02-24T12:44:08.827Z,76.27
2018-02-24T12:45:17.935Z,75.6
2018-02-24T12:46:26.764Z,75.13
2018-02-24T12:47:35.597Z,74.37
2018-02-24T12:48:44.430Z,72.86
2018-02-24T12:49:53.259Z,72.77
2018-02-24T12:51:02.093Z,71.91
2018-02-24T12:52:10.923Z,71.76
2018-02-24T12:53:20.281Z,71.53
2018-02-24T12:54:29.113Z,71.06
2018-02-24T12:55:37.944Z,70.78
2018-02-24T12:56:46.777Z,70.58
2018-02-24T12:57:55.608Z,70.78
2018-02-24T12:59:04.742Z,70.87
2018-02-24T13:00:13.572Z,70.39
2018-02-24T13:01:22.401Z,70.97
2018-02-24T13:02:31.231Z,70.87
2018-02-24T13:03:40.082Z,70.05
2018-02-24T13:04:48.916Z,70.3
2018-02-24T13:05:57.748Z,70.87
2018-02-24T13:07:06.588Z,69.96
2018-02-24T13:08:15.420Z,69.96
2018-02-24T13:09:24.254Z,68.35
2018-02-24T13:10:33.187Z,68.91
2018-02-24T13:11:42.022Z,67.96
2018-02-24T13:12:50.853Z,67.4
2018-02-24T13:13:59.716Z,66.83
2018-02-24T13:15:08.797Z,67.3
2018-02-24T13:16:18.065Z,67.21
2018-02-24T13:17:26.895Z,67.11
2018-02-24T13:18:35.727Z,66.45
2018-02-24T13:19:44.561Z,66.64
2018-02-24T13:20:53.472Z,66.74
2018-02-24T13:22:02.477Z,67.11
2018-02-24T13:23:11.590Z,67.02
2018-02-24T13:24:20.424Z,67.3
2018-02-24T13:25:29.383Z,66.83
2018-02-24T13:26:38.539Z,66.45
2018-02-24T13:27:47.425Z,66.64
2018-02-24T13:28:56.267Z,66.26
2018-02-24T13:30:05.094Z,66.54
2018-02-24T13:31:13.927Z,65.82
2018-02-24T13:32:22.911Z,65.44
2018-02-24T13:33:31.926Z,65.44
2018-02-24T13:34:40.769Z,64.74
2018-02-24T13:35:49.598Z,64.27
2018-02-24T13:36:58.431Z,65.78
2018-02-24T13:38:07.266Z,65.25
2018-02-24T13:39:16.250Z,64.59
2018-02-24T13:40:25.098Z,64.01
2018-02-24T13:41:34.134Z,63.17
2018-02-24T13:42:43.393Z,63.73
2018-02-24T13:43:52.815Z,64.49
2018-02-24T13:45:01.767Z,64.2
2018-02-24T13:46:10.606Z,63.07
2018-02-24T13:47:19.508Z,62.31
2018-02-24T13:48:28.616Z,61.93
2018-02-24T13:49:37.476Z,62.69
2018-02-24T13:50:46.359Z,62.97
2018-02-24T13:51:55.217Z,63.45
2018-02-24T13:53:04.091Z,62.97
2018-02-24T13:54:12.922Z,62.4
2018-02-24T13:55:22.043Z,62.88
2018-02-24T13:56:31.037Z,62.5
2018-02-24T13:57:39.897Z,61.46
2018-02-24T13:58:48.731Z,61.65
2018-02-24T13:59:57.570Z,60.98
2018-02-24T14:01:06.405Z,60.5
2018-02-24T14:02:15.487Z,61.46
2018-02-24T14:03:24.321Z,61.36
2018-02-24T14:04:33.159Z,61.83
2018-02-24T14:05:42.271Z,61.46
2018-02-24T14:06:51.109Z,60.79
2018-02-24T14:08:00.317Z,60.89
2018-02-24T14:09:09.150Z,60.31
2018-02-24T14:10:17.984Z,60.98
2018-02-24T14:11:26.820Z,60.22
2018-02-24T14:12:35.654Z,60.89
2018-02-24T14:13:44.490Z,61.08
2018-02-24T14:14:53.330Z,61.55
2018-02-24T14:16:02.167Z,61.36
2018-02-24T14:17:11.002Z,60.98
2018-02-24T14:18:19.838Z,61.08
2018-02-24T14:19:28.686Z,60.98
2018-02-24T14:20:37.522Z,60.73
2018-02-24T14:21:46.646Z,59.21
2018-02-24T14:22:55.492Z,58.83
2018-02-24T14:24:04.336Z,58.83
2018-02-24T14:25:13.352Z,58.83
2018-02-24T14:26:22.156Z,59.02
2018-02-24T14:27:31.014Z,59.11
2018-02-24T14:28:39.851Z,58.83
2018-02-24T14:29:48.695Z,57.69
2018-02-24T14:30:57.607Z,57.98
2018-02-24T14:32:06.971Z,57.12
2018-02-24T14:33:16.013Z,57.12
2018-02-24T14:34:24.967Z,57.69
2018-02-24T14:35:33.791Z,58.45
2018-02-24T14:36:42.628Z,58.07
2018-02-24T14:37:51.743Z,58.07
2018-02-24T14:39:00.858Z,58.07
2018-02-24T14:40:09.692Z,57.79
2018-02-24T14:41:18.528Z,57.4
2018-02-24T14:42:27.512Z,57.31
2018-02-24T14:43:36.352Z,57.12
2018-02-24T14:44:45.464Z,56.74
2018-02-24T14:45:55.527Z,56.93
2018-02-24T14:47:04.471Z,56.93
2018-02-24T14:48:13.936Z,57.12
2018-02-24T14:49:23.098Z,57.5
2018-02-24T14:50:31.952Z,57.4